createdAt,value
2019-01-04T10:14:50.273Z,58.22
2019-01-04T10:17:22.854Z,57.92
2019-01-04T10:19:52.014Z,57.83
2019-01-04T10:22:21.163Z,57.82
2019-01-04T10:24:50.263Z,57.81
2019-01-04T10:27:19.362Z,57.53
2019-01-04T10:29:48.431Z,57.46
2019-01-04T10:32:17.528Z,57.48
2019-01-04T10:34:46.623Z,57.38
2019-01-04T10:37:15.719Z,57.53
2019-01-04T10:39:44.795Z,57.49
2019-01-04T10:42:13.873Z,57.36
2019-01-04T10:44:43.028Z,56.86
2019-01-04T10:47:12.107Z,56.75
2019-01-04T10:49:41.165Z,56.82
2019-01-04T10:52:10.233Z,56.88
2019-01-04T10:54:39.340Z,56.83
2019-01-04T10:57:08.396Z,56.88
2019-01-04T10:59:37.514Z,56.89
2019-01-04T11:02:06.534Z,56.88
2019-01-04T11:04:35.533Z,56.91
2019-01-04T11:07:04.516Z,56.93
2019-01-04T11:09:33.566Z,57.03
2019-01-04T11:12:02.516Z,57.07
2019-01-04T11:14:31.579Z,57.01
2019-01-04T11:17:00.647Z,57.11
2019-01-04T11:19:29.811Z,57.13
2019-01-04T11:22:34.431Z,57.23
2019-01-04T11:25:42.951Z,57.26
2019-01-04T11:28:18.429Z,57.21
2019-01-04T11:31:24.455Z,57.27
2019-01-04T11:34:00.321Z,57.21
2019-01-04T11:37:05.767Z,57.09
2019-01-04T11:40:11.957Z,57.07
2019-01-04T11:43:06.393Z,57.01
2019-01-04T11:46:10.816Z,56.99
2019-01-04T11:48:59.786Z,57.00
2019-01-04T11:51:55.424Z,57.04
2019-01-04T11:54:29.516Z,57.06
2019-01-04T11:56:58.644Z,57.24
2019-01-04T11:59:27.860Z,57.33
2019-01-04T12:01:56.957Z,57.39
2019-01-04T12:04:26.129Z,57.47
2019-01-04T12:06:56.819Z,57.48
2019-01-04T12:09:25.998Z,57.50
2019-01-04T12:11:55.239Z,57.48
2019-01-04T12:14:24.647Z,57.59
2019-01-04T12:16:53.949Z,57.70
2019-01-04T12:19:23.108Z,57.89
2019-01-04T12:21:52.212Z,57.97
2019-01-04T12:24:22.330Z,58.02
2019-01-04T12:26:51.593Z,58.02
2019-01-04T12:29:20.695Z,58.02
2019-01-04T12:31:49.834Z,58.06
2019-01-04T12:34:18.914Z,58.17
2019-01-04T12:36:48.098Z,58.10
2019-01-04T12:39:17.197Z,58.08
2019-01-04T12:41:46.284Z,58.11
2019-01-04T12:44:15.349Z,58.13
2019-01-04T12:46:44.409Z,58.30
2019-01-04T12:49:13.456Z,58.12
2019-01-04T12:51:42.528Z,58.06
2019-01-04T12:54:11.785Z,57.92
2019-01-04T12:56:40.894Z,57.83
2019-01-04T12:59:10.004Z,57.77
2019-01-04T13:01:39.209Z,57.67
2019-01-04T13:04:08.368Z,57.42
2019-01-04T13:06:37.442Z,57.15
2019-01-04T13:09:07.333Z,56.99
2019-01-04T13:11:36.372Z,57.00
2019-01-04T13:14:05.445Z,56.90
2019-01-04T13:16:34.566Z,56.74
2019-01-04T13:19:03.628Z,56.74
2019-01-04T13:21:32.654Z,56.61
2019-01-04T13:24:01.710Z,56.83
2019-01-04T13:26:30.853Z,56.60
2019-01-04T13:28:59.939Z,56.78
2019-01-04T13:31:29.001Z,56.81
2019-01-04T13:33:58.132Z,56.94
2019-01-04T13:36:27.191Z,57.01
2019-01-04T13:38:56.245Z,57.21
2019-01-04T13:41:25.305Z,57.29
2019-01-04T13:43:54.405Z,57.34
2019-01-04T13:46:23.457Z,57.39
2019-01-04T13:48:52.544Z,57.49
2019-01-04T13:51:21.643Z,57.45
2019-01-04T13:53:50.736Z,57.45
2019-01-04T13:56:19.881Z,57.54
2019-01-04T13:58:49.130Z,57.67
2019-01-04T14:01:18.158Z,57.72
2019-01-04T14:03:47.314Z,57.62
2019-01-04T14:06:16.395Z,57.80
2019-01-04T14:08:45.561Z,57.97
2019-01-04T14:11:14.631Z,58.03
2019-01-04T14:13:43.789Z,58.10
2019-01-04T14:16:12.872Z,58.17
2019-01-04T14:18:41.935Z,58.13
2019-01-04T14:21:11.087Z,58.24
2019-01-04T14:23:40.272Z,58.12
2019-01-04T14:26:09.395Z,58.08
2019-01-04T14:28:38.520Z,58.17
2019-01-04T14:31:07.776Z,57.99
2019-01-04T14:33:36.782Z,58.10
2019-01-04T14:36:06.981Z,58.23
2019-01-04T14:38:36.107Z,58.26
2019-01-04T14:41:05.203Z,58.19
2019-01-04T14:43:34.332Z,58.26
2019-01-04T14:46:03.466Z,58.23
2019-01-04T14:48:32.382Z,58.32
2019-01-04T14:51:01.478Z,58.39
2019-01-04T14:53:30.718Z,58.39
2019-01-04T14:55:59.855Z,58.49
2019-01-04T14:58:29.036Z,58.56
2019-01-04T15:00:58.183Z,58.72
2019-01-04T15:03:27.192Z,58.67
2019-01-04T15:05:56.248Z,58.69
2019-01-04T15:08:25.406Z,58.70
2019-01-04T15:10:54.509Z,58.73
2019-01-04T15:13:23.588Z,58.74
2019-01-04T15:15:52.705Z,58.76
2019-01-04T15:18:21.723Z,58.61
2019-01-04T15:20:50.971Z,58.58
2019-01-04T15:23:20.039Z,58.51
2019-01-04T15:25:49.407Z,58.52
2019-01-04T15:28:18.539Z,58.47
2019-01-04T15:30:47.583Z,58.46
2019-01-04T15:33:16.701Z,58.49
2019-01-04T15:35:46.663Z,58.49
2019-01-04T15:38:16.567Z,58.53
2019-01-04T15:40:45.702Z,58.58
2019-01-04T15:43:14.835Z,58.55
2019-01-04T15:45:43.919Z,58.60
2019-01-04T15:48:12.957Z,58.68
2019-01-04T15:50:42.016Z,58.68
2019-01-04T15:53:11.076Z,58.76
2019-01-04T15:55:40.160Z,58.87
2019-01-04T15:58:09.194Z,58.91
2019-01-04T16:00:38.289Z,58.78
2019-01-04T16:03:07.303Z,58.66
2019-01-04T16:05:36.628Z,58.73
2019-01-04T16:08:05.810Z,58.89
2019-01-04T16:10:34.832Z,59.01
2019-01-04T16:13:04.051Z,59.00
2019-01-04T16:15:33.109Z,59.12
2019-01-04T16:18:02.280Z,59.07
2019-01-04T16:20:31.347Z,59.08
